sensor_id;sensor_type;location;lat;lon;timestamp;P1;durP1;ratioP1;P2;durP2;ratioP2
29906;SDS011;16776;50.958;10.994;2023-04-03T00:01:31;1.75;;;0.40;;
29906;SDS011;16776;50.958;10.994;2023-04-03T00:03:58;0.10;;;0.10;;
29906;SDS011;16776;50.958;10.994;2023-04-03T00:06:25;0.73;;;0.30;;
29906;SDS011;16776;50.958;10.994;2023-04-03T00:08:51;1.25;;;0.40;;
29906;SDS011;16776;50.958;10.994;2023-04-03T00:11:18;0.80;;;0.40;;
29906;SDS011;16776;50.958;10.994;2023-04-03T00:13:46;1.40;;;0.40;;
29906;SDS011;16776;50.958;10.994;2023-04-03T00:16:13;1.48;;;0.50;;
29906;SDS011;16776;50.958;10.994;2023-04-03T00:18:41;1.15;;;0.40;;
29906;SDS011;16776;50.958;10.994;2023-04-03T00:21:10;1.17;;;0.40;;
29906;SDS011;16776;50.958;10.994;2023-04-03T00:23:38;0.55;;;0.30;;
29906;SDS011;16776;50.958;10.994;2023-04-03T00:26:05;1.00;;;0.50;;
29906;SDS011;16776;50.958;10.994;2023-04-03T00:28:32;0.82;;;0.38;;
29906;SDS011;16776;50.958;10.994;2023-04-03T00:30:58;1.48;;;0.50;;
29906;SDS011;16776;50.958;10.994;2023-04-03T00:33:25;0.45;;;0.30;;
29906;SDS011;16776;50.958;10.994;2023-04-03T00:35:53;0.65;;;0.50;;
29906;SDS011;16776;50.958;10.994;2023-04-03T00:38:19;0.73;;;0.50;;
29906;SDS011;16776;50.958;10.994;2023-04-03T00:40:47;0.65;;;0.50;;
29906;SDS011;16776;50.958;10.994;2023-04-03T00:43:14;0.55;;;0.45;;
29906;SDS011;16776;50.958;10.994;2023-04-03T00:45:44;1.38;;;0.50;;
29906;SDS011;16776;50.958;10.994;2023-04-03T00:48:13;2.45;;;0.50;;
29906;SDS011;16776;50.958;10.994;2023-04-03T00:50:43;0.50;;;0.35;;
29906;SDS011;16776;50.958;10.994;2023-04-03T00:53:12;3.60;;;0.60;;
29906;SDS011;16776;50.958;10.994;2023-04-03T00:55:42;0.50;;;0.50;;
29906;SDS011;16776;50.958;10.994;2023-04-03T00:58:10;0.77;;;0.65;;
29906;SDS011;16776;50.958;10.994;2023-04-03T01:00:38;0.90;;;0.50;;
29906;SDS011;16776;50.958;10.994;2023-04-03T01:03:09;2.08;;;0.47;;
29906;SDS011;16776;50.958;10.994;2023-04-03T01:05:35;1.75;;;0.40;;
29906;SDS011;16776;50.958;10.994;2023-04-03T01:08:02;1.42;;;0.60;;
29906;SDS011;16776;50.958;10.994;2023-04-03T01:10:30;3.08;;;0.40;;
29906;SDS011;16776;50.958;10.994;2023-04-03T01:12:57;2.05;;;0.43;;
29906;SDS011;16776;50.958;10.994;2023-04-03T01:15:26;1.40;;;0.65;;
29906;SDS011;16776;50.958;10.994;2023-04-03T01:17:55;0.77;;;0.47;;
29906;SDS011;16776;50.958;10.994;2023-04-03T01:20:39;1.20;;;0.47;;
29906;SDS011;16776;50.958;10.994;2023-04-03T01:26:23;1.35;;;0.50;;
29906;SDS011;16776;50.958;10.994;2023-04-03T01:28:52;1.10;;;0.47;;
29906;SDS011;16776;50.958;10.994;2023-04-03T01:31:20;1.60;;;0.65;;
29906;SDS011;16776;50.958;10.994;2023-04-03T01:33:52;1.85;;;0.50;;
29906;SDS011;16776;50.958;10.994;2023-04-03T01:36:19;0.70;;;0.40;;
29906;SDS011;16776;50.958;10.994;2023-04-03T01:38:47;0.98;;;0.50;;
29906;SDS011;16776;50.958;10.994;2023-04-03T01:41:14;0.63;;;0.50;;
29906;SDS011;16776;50.958;10.994;2023-04-03T01:43:41;3.03;;;0.82;;
29906;SDS011;16776;50.958;10.994;2023-04-03T01:46:07;1.45;;;0.63;;
29906;SDS011;16776;50.958;10.994;2023-04-03T01:48:37;0.65;;;0.47;;
29906;SDS011;16776;50.958;10.994;2023-04-03T01:51:05;1.00;;;0.50;;
29906;SDS011;16776;50.958;10.994;2023-04-03T01:53:32;1.30;;;0.38;;
29906;SDS011;16776;50.958;10.994;2023-04-03T01:55:58;2.47;;;0.52;;
29906;SDS011;16776;50.958;10.994;2023-04-03T01:58:25;1.10;;;0.60;;
29906;SDS011;16776;50.958;10.994;2023-04-03T02:00:51;3.05;;;0.70;;
29906;SDS011;16776;50.958;10.994;2023-04-03T02:03:19;0.60;;;0.43;;
29906;SDS011;16776;50.958;10.994;2023-04-03T02:05:45;1.80;;;0.50;;
29906;SDS011;16776;50.958;10.994;2023-04-03T02:08:13;2.13;;;0.47;;
29906;SDS011;16776;50.958;10.994;2023-04-03T02:10:42;2.63;;;0.50;;
29906;SDS011;16776;50.958;10.994;2023-04-03T02:13:09;2.08;;;0.70;;
29906;SDS011;16776;50.958;10.994;2023-04-03T02:15:37;2.03;;;0.50;;
29906;SDS011;16776;50.958;10.994;2023-04-03T02:18:06;1.08;;;0.77;;
29906;SDS011;16776;50.958;10.994;2023-04-03T02:20:33;1.60;;;0.50;;
29906;SDS011;16776;50.958;10.994;2023-04-03T02:23:00;0.75;;;0.75;;
29906;SDS011;16776;50.958;10.994;2023-04-03T02:25:29;0.68;;;0.52;;
29906;SDS011;16776;50.958;10.994;2023-04-03T02:28:00;0.60;;;0.57;;
29906;SDS011;16776;50.958;10.994;2023-04-03T02:30:26;2.60;;;0.40;;
29906;SDS011;16776;50.958;10.994;2023-04-03T02:32:53;1.52;;;0.80;;
29906;SDS011;16776;50.958;10.994;2023-04-03T02:35:19;1.70;;;0.45;;
29906;SDS011;16776;50.958;10.994;2023-04-03T02:37:47;2.95;;;0.95;;
29906;SDS011;16776;50.958;10.994;2023-04-03T02:40:14;0.40;;;0.30;;
29906;SDS011;16776;50.958;10.994;2023-04-03T02:42:42;0.40;;;0.30;;
29906;SDS011;16776;50.958;10.994;2023-04-03T02:45:09;1.58;;;0.57;;
29906;SDS011;16776;50.958;10.994;2023-04-03T02:47:36;2.15;;;0.73;;
29906;SDS011;16776;50.958;10.994;2023-04-03T02:50:02;1.10;;;0.43;;
29906;SDS011;16776;50.958;10.994;2023-04-03T02:52:29;1.83;;;0.73;;
29906;SDS011;16776;50.958;10.994;2023-04-03T02:54:57;0.75;;;0.50;;
29906;SDS011;16776;50.958;10.994;2023-04-03T02:57:24;1.83;;;0.52;;
29906;SDS011;16776;50.958;10.994;2023-04-03T02:59:52;3.10;;;0.50;;
29906;SDS011;16776;50.958;10.994;2023-04-03T03:02:18;1.05;;;0.52;;
29906;SDS011;16776;50.958;10.994;2023-04-03T03:04:45;1.85;;;0.70;;
29906;SDS011;16776;50.958;10.994;2023-04-03T03:07:11;0.45;;;0.45;;
29906;SDS011;16776;50.958;10.994;2023-04-03T03:09:38;1.73;;;0.40;;
29906;SDS011;16776;50.958;10.994;2023-04-03T03:12:05;2.13;;;0.68;;
29906;SDS011;16776;50.958;10.994;2023-04-03T03:14:31;1.33;;;0.70;;
29906;SDS011;16776;50.958;10.994;2023-04-03T03:16:59;2.03;;;0.63;;
29906;SDS011;16776;50.958;10.994;2023-04-03T03:19:26;0.60;;;0.52;;
29906;SDS011;16776;50.958;10.994;2023-04-03T03:21:52;1.30;;;0.60;;
29906;SDS011;16776;50.958;10.994;2023-04-03T03:24:19;0.68;;;0.38;;
29906;SDS011;16776;50.958;10.994;2023-04-03T03:26:45;1.52;;;0.38;;
29906;SDS011;16776;50.958;10.994;2023-04-03T03:29:12;0.60;;;0.45;;
29906;SDS011;16776;50.958;10.994;2023-04-03T03:31:38;2.42;;;0.45;;
29906;SDS011;16776;50.958;10.994;2023-04-03T03:34:06;0.75;;;0.57;;
29906;SDS011;16776;50.958;10.994;2023-04-03T03:36:33;0.60;;;0.50;;
29906;SDS011;16776;50.958;10.994;2023-04-03T03:38:59;1.52;;;0.52;;
29906;SDS011;16776;50.958;10.994;2023-04-03T03:41:26;2.13;;;1.05;;
29906;SDS011;16776;50.958;10.994;2023-04-03T03:43:52;1.17;;;0.60;;
29906;SDS011;16776;50.958;10.994;2023-04-03T03:46:19;1.50;;;1.10;;
29906;SDS011;16776;50.958;10.994;2023-04-03T03:48:45;2.20;;;1.13;;
29906;SDS011;16776;50.958;10.994;2023-04-03T03:51:13;1.40;;;1.10;;
29906;SDS011;16776;50.958;10.994;2023-04-03T03:53:40;2.35;;;1.10;;
29906;SDS011;16776;50.958;10.994;2023-04-03T03:56:07;4.32;;;1.58;;
29906;SDS011;16776;50.958;10.994;2023-04-03T03:58:33;1.90;;;1.27;;
29906;SDS011;16776;50.958;10.994;2023-04-03T04:01:00;2.90;;;1.73;;
29906;SDS011;16776;50.958;10.994;2023-04-03T04:03:33;1.85;;;0.90;;
29906;SDS011;16776;50.958;10.994;2023-04-03T04:06:00;1.65;;;0.75;;
29906;SDS011;16776;50.958;10.994;2023-04-03T04:08:28;1.67;;;1.10;;
29906;SDS011;16776;50.958;10.994;2023-04-03T04:10:54;3.45;;;1.40;;
29906;SDS011;16776;50.958;10.994;2023-04-03T04:13:21;1.73;;;1.00;;
29906;SDS011;16776;50.958;10.994;2023-04-03T04:15:50;1.67;;;1.10;;
29906;SDS011;16776;50.958;10.994;2023-04-03T04:18:17;2.90;;;0.85;;
29906;SDS011;16776;50.958;10.994;2023-04-03T04:20:45;2.33;;;1.30;;
29906;SDS011;16776;50.958;10.994;2023-04-03T04:23:11;2.30;;;1.00;;
29906;SDS011;16776;50.958;10.994;2023-04-03T04:25:39;3.20;;;1.63;;
29906;SDS011;16776;50.958;10.994;2023-04-03T04:28:06;2.17;;;1.30;;
29906;SDS011;16776;50.958;10.994;2023-04-03T04:30:33;1.58;;;1.00;;
29906;SDS011;16776;50.958;10.994;2023-04-03T04:32:59;2.30;;;0.70;;
29906;SDS011;16776;50.958;10.994;2023-04-03T04:35:26;1.20;;;0.82;;
29906;SDS011;16776;50.958;10.994;2023-04-03T04:37:53;2.17;;;1.05;;
29906;SDS011;16776;50.958;10.994;2023-04-03T04:40:19;1.13;;;0.82;;
29906;SDS011;16776;50.958;10.994;2023-04-03T04:42:47;1.38;;;1.05;;
29906;SDS011;16776;50.958;10.994;2023-04-03T04:45:14;3.92;;;1.67;;
29906;SDS011;16776;50.958;10.994;2023-04-03T04:47:41;1.33;;;1.23;;
29906;SDS011;16776;50.958;10.994;2023-04-03T04:50:08;1.48;;;1.38;;
29906;SDS011;16776;50.958;10.994;2023-04-03T04:52:35;4.80;;;1.58;;
29906;SDS011;16776;50.958;10.994;2023-04-03T04:55:02;3.75;;;1.30;;
29906;SDS011;16776;50.958;10.994;2023-04-03T04:57:29;1.20;;;0.98;;
29906;SDS011;16776;50.958;10.994;2023-04-03T04:59:57;1.90;;;1.10;;
29906;SDS011;16776;50.958;10.994;2023-04-03T05:02:23;2.20;;;1.45;;
29906;SDS011;16776;50.958;10.994;2023-04-03T05:04:50;1.52;;;1.08;;
29906;SDS011;16776;50.958;10.994;2023-04-03T05:07:17;1.20;;;1.05;;
29906;SDS011;16776;50.958;10.994;2023-04-03T05:09:44;1.58;;;1.08;;
29906;SDS011;16776;50.958;10.994;2023-04-03T05:12:11;2.25;;;1.23;;
29906;SDS011;16776;50.958;10.994;2023-04-03T05:14:40;2.35;;;1.27;;
29906;SDS011;16776;50.958;10.994;2023-04-03T05:17:07;1.48;;;1.23;;
29906;SDS011;16776;50.958;10.994;2023-04-03T05:19:34;3.40;;;1.63;;
29906;SDS011;16776;50.958;10.994;2023-04-03T05:22:01;3.72;;;1.50;;
29906;SDS011;16776;50.958;10.994;2023-04-03T05:24:27;2.15;;;1.30;;
29906;SDS011;16776;50.958;10.994;2023-04-03T05:26:54;2.72;;;1.02;;
29906;SDS011;16776;50.958;10.994;2023-04-03T05:29:20;1.70;;;1.00;;
29906;SDS011;16776;50.958;10.994;2023-04-03T05:31:48;1.40;;;0.88;;
29906;SDS011;16776;50.958;10.994;2023-04-03T05:34:16;3.40;;;1.27;;
29906;SDS011;16776;50.958;10.994;2023-04-03T05:36:45;3.13;;;1.60;;
29906;SDS011;16776;50.958;10.994;2023-04-03T05:39:11;2.45;;;1.52;;
29906;SDS011;16776;50.958;10.994;2023-04-03T05:41:38;4.68;;;1.42;;
29906;SDS011;16776;50.958;10.994;2023-04-03T05:44:04;4.43;;;1.88;;
29906;SDS011;16776;50.958;10.994;2023-04-03T05:46:31;3.28;;;1.50;;
29906;SDS011;16776;50.958;10.994;2023-04-03T05:49:00;5.00;;;2.20;;
29906;SDS011;16776;50.958;10.994;2023-04-03T05:51:30;2.67;;;1.08;;
29906;SDS011;16776;50.958;10.994;2023-04-03T05:54:01;1.45;;;1.27;;
29906;SDS011;16776;50.958;10.994;2023-04-03T05:56:32;1.02;;;0.90;;
29906;SDS011;16776;50.958;10.994;2023-04-03T05:58:59;1.15;;;0.98;;
29906;SDS011;16776;50.958;10.994;2023-04-03T06:01:26;2.05;;;1.10;;
29906;SDS011;16776;50.958;10.994;2023-04-03T06:03:53;1.83;;;1.10;;
29906;SDS011;16776;50.958;10.994;2023-04-03T06:06:19;3.17;;;1.20;;
29906;SDS011;16776;50.958;10.994;2023-04-03T06:08:48;1.13;;;1.10;;
29906;SDS011;16776;50.958;10.994;2023-04-03T06:11:15;2.40;;;1.25;;
29906;SDS011;16776;50.958;10.994;2023-04-03T06:13:41;1.80;;;0.90;;
29906;SDS011;16776;50.958;10.994;2023-04-03T06:16:08;3.40;;;1.02;;
29906;SDS011;16776;50.958;10.994;2023-04-03T06:18:39;1.60;;;1.00;;
29906;SDS011;16776;50.958;10.994;2023-04-03T06:21:06;4.82;;;1.63;;
29906;SDS011;16776;50.958;10.994;2023-04-03T06:23:33;2.10;;;1.30;;
29906;SDS011;16776;50.958;10.994;2023-04-03T06:26:01;2.03;;;1.40;;
29906;SDS011;16776;50.958;10.994;2023-04-03T06:28:27;2.67;;;1.45;;
29906;SDS011;16776;50.958;10.994;2023-04-03T06:30:54;2.00;;;1.58;;
29906;SDS011;16776;50.958;10.994;2023-04-03T06:33:20;1.40;;;1.20;;
29906;SDS011;16776;50.958;10.994;2023-04-03T06:35:47;2.00;;;1.15;;
29906;SDS011;16776;50.958;10.994;2023-04-03T06:38:13;2.97;;;1.08;;
29906;SDS011;16776;50.958;10.994;2023-04-03T06:40:40;1.38;;;1.00;;
29906;SDS011;16776;50.958;10.994;2023-04-03T06:43:08;1.48;;;0.90;;
29906;SDS011;16776;50.958;10.994;2023-04-03T06:45:34;2.83;;;0.98;;
29906;SDS011;16776;50.958;10.994;2023-04-03T06:48:01;1.42;;;0.90;;
29906;SDS011;16776;50.958;10.994;2023-04-03T06:50:28;4.55;;;1.30;;
29906;SDS011;16776;50.958;10.994;2023-04-03T06:52:56;2.80;;;1.10;;
29906;SDS011;16776;50.958;10.994;2023-04-03T06:55:22;2.15;;;1.27;;
29906;SDS011;16776;50.958;10.994;2023-04-03T06:57:49;1.10;;;0.95;;
29906;SDS011;16776;50.958;10.994;2023-04-03T07:00:18;1.33;;;0.60;;
29906;SDS011;16776;50.958;10.994;2023-04-03T07:02:45;2.08;;;1.00;;
29906;SDS011;16776;50.958;10.994;2023-04-03T07:05:11;2.60;;;0.85;;
29906;SDS011;16776;50.958;10.994;2023-04-03T07:07:38;1.85;;;0.85;;
29906;SDS011;16776;50.958;10.994;2023-04-03T07:10:05;2.05;;;0.95;;
29906;SDS011;16776;50.958;10.994;2023-04-03T07:12:33;2.33;;;0.73;;
29906;SDS011;16776;50.958;10.994;2023-04-03T07:15:00;1.52;;;0.80;;
29906;SDS011;16776;50.958;10.994;2023-04-03T07:17:28;3.33;;;1.15;;
29906;SDS011;16776;50.958;10.994;2023-04-03T07:19:54;1.60;;;0.93;;
29906;SDS011;16776;50.958;10.994;2023-04-03T07:22:21;3.25;;;1.00;;
29906;SDS011;16776;50.958;10.994;2023-04-03T07:24:47;5.95;;;1.52;;
29906;SDS011;16776;50.958;10.994;2023-04-03T07:27:14;4.00;;;2.20;;
29906;SDS011;16776;50.958;10.994;2023-04-03T07:29:40;5.30;;;2.58;;
29906;SDS011;16776;50.958;10.994;2023-04-03T07:32:07;9.25;;;3.05;;
29906;SDS011;16776;50.958;10.994;2023-04-03T07:34:36;5.85;;;3.22;;
29906;SDS011;16776;50.958;10.994;2023-04-03T07:37:02;4.78;;;3.20;;
29906;SDS011;16776;50.958;10.994;2023-04-03T07:39:29;7.15;;;3.45;;
29906;SDS011;16776;50.958;10.994;2023-04-03T07:41:56;6.45;;;3.00;;
29906;SDS011;16776;50.958;10.994;2023-04-03T07:44:23;6.90;;;3.33;;
29906;SDS011;16776;50.958;10.994;2023-04-03T07:46:50;4.90;;;2.60;;
29906;SDS011;16776;50.958;10.994;2023-04-03T07:49:16;4.90;;;2.10;;
29906;SDS011;16776;50.958;10.994;2023-04-03T07:51:45;3.15;;;2.33;;
29906;SDS011;16776;50.958;10.994;2023-04-03T07:54:12;4.63;;;2.28;;
29906;SDS011;16776;50.958;10.994;2023-04-03T07:56:38;3.60;;;1.80;;
29906;SDS011;16776;50.958;10.994;2023-04-03T07:59:05;3.97;;;1.65;;
29906;SDS011;16776;50.958;10.994;2023-04-03T08:01:31;3.10;;;1.55;;
29906;SDS011;16776;50.958;10.994;2023-04-03T08:03:58;1.90;;;1.08;;
29906;SDS011;16776;50.958;10.994;2023-04-03T08:06:25;2.40;;;1.30;;
29906;SDS011;16776;50.958;10.994;2023-04-03T08:08:53;3.60;;;1.27;;
29906;SDS011;16776;50.958;10.994;2023-04-03T08:11:21;2.05;;;1.17;;
29906;SDS011;16776;50.958;10.994;2023-04-03T08:13:48;1.38;;;0.70;;
29906;SDS011;16776;50.958;10.994;2023-04-03T08:16:16;2.25;;;0.90;;
29906;SDS011;16776;50.958;10.994;2023-04-03T08:18:44;2.40;;;0.80;;
29906;SDS011;16776;50.958;10.994;2023-04-03T08:21:11;1.75;;;0.70;;
29906;SDS011;16776;50.958;10.994;2023-04-03T08:23:39;2.33;;;0.90;;
29906;SDS011;16776;50.958;10.994;2023-04-03T08:26:09;2.05;;;0.73;;
29906;SDS011;16776;50.958;10.994;2023-04-03T08:28:37;0.85;;;0.80;;
29906;SDS011;16776;50.958;10.994;2023-04-03T08:31:07;0.98;;;0.80;;
29906;SDS011;16776;50.958;10.994;2023-04-03T08:33:36;1.05;;;0.65;;
29906;SDS011;16776;50.958;10.994;2023-04-03T08:36:04;2.30;;;0.95;;
29906;SDS011;16776;50.958;10.994;2023-04-03T08:38:32;1.48;;;0.82;;
29906;SDS011;16776;50.958;10.994;2023-04-03T08:41:04;2.05;;;0.70;;
29906;SDS011;16776;50.958;10.994;2023-04-03T08:43:40;3.33;;;1.08;;
29906;SDS011;16776;50.958;10.994;2023-04-03T08:46:19;2.22;;;0.73;;
29906;SDS011;16776;50.958;10.994;2023-04-03T08:48:48;1.60;;;0.52;;
29906;SDS011;16776;50.958;10.994;2023-04-03T08:51:20;0.73;;;0.65;;
29906;SDS011;16776;50.958;10.994;2023-04-03T08:53:54;1.38;;;0.70;;
29906;SDS011;16776;50.958;10.994;2023-04-03T08:58:55;1.42;;;0.68;;
29906;SDS011;16776;50.958;10.994;2023-04-03T09:01:24;1.25;;;0.60;;
29906;SDS011;16776;50.958;10.994;2023-04-03T09:03:54;1.67;;;0.80;;
29906;SDS011;16776;50.958;10.994;2023-04-03T09:06:21;0.98;;;0.60;;
29906;SDS011;16776;50.958;10.994;2023-04-03T09:08:51;0.55;;;0.40;;
29906;SDS011;16776;50.958;10.994;2023-04-03T09:11:33;1.30;;;0.57;;
29906;SDS011;16776;50.958;10.994;2023-04-03T09:14:11;1.00;;;0.40;;
29906;SDS011;16776;50.958;10.994;2023-04-03T09:16:48;1.75;;;0.80;;
29906;SDS011;16776;50.958;10.994;2023-04-03T09:19:19;1.17;;;0.50;;
29906;SDS011;16776;50.958;10.994;2023-04-03T09:21:50;1.20;;;0.40;;
29906;SDS011;16776;50.958;10.994;2023-04-03T09:24:22;2.08;;;0.70;;
29906;SDS011;16776;50.958;10.994;2023-04-03T09:26:51;0.40;;;0.40;;
29906;SDS011;16776;50.958;10.994;2023-04-03T09:29:23;1.40;;;0.57;;
29906;SDS011;16776;50.958;10.994;2023-04-03T09:31:51;0.68;;;0.40;;
29906;SDS011;16776;50.958;10.994;2023-04-03T09:34:22;0.73;;;0.40;;
29906;SDS011;16776;50.958;10.994;2023-04-03T09:36:51;0.70;;;0.70;;
29906;SDS011;16776;50.958;10.994;2023-04-03T09:39:20;0.98;;;0.63;;
29906;SDS011;16776;50.958;10.994;2023-04-03T09:41:58;0.82;;;0.40;;
29906;SDS011;16776;50.958;10.994;2023-04-03T09:44:29;0.35;;;0.35;;
29906;SDS011;16776;50.958;10.994;2023-04-03T09:46:58;0.43;;;0.30;;
29906;SDS011;16776;50.958;10.994;2023-04-03T09:49:25;0.95;;;0.32;;
29906;SDS011;16776;50.958;10.994;2023-04-03T09:51:52;0.40;;;0.40;;
29906;SDS011;16776;50.958;10.994;2023-04-03T09:54:30;1.67;;;0.52;;
29906;SDS011;16776;50.958;10.994;2023-04-03T09:57:06;1.90;;;0.45;;
29906;SDS011;16776;50.958;10.994;2023-04-03T09:59:46;0.63;;;0.63;;
29906;SDS011;16776;50.958;10.994;2023-04-03T10:02:21;1.27;;;0.40;;
29906;SDS011;16776;50.958;10.994;2023-04-03T10:04:54;0.22;;;0.20;;
29906;SDS011;16776;50.958;10.994;2023-04-03T10:07:29;1.17;;;0.30;;
29906;SDS011;16776;50.958;10.994;2023-04-03T10:09:58;0.57;;;0.40;;
29906;SDS011;16776;50.958;10.994;2023-04-03T10:12:29;0.73;;;0.45;;
29906;SDS011;16776;50.958;10.994;2023-04-03T10:14:58;2.53;;;0.40;;
29906;SDS011;16776;50.958;10.994;2023-04-03T10:17:32;2.03;;;0.63;;
29906;SDS011;16776;50.958;10.994;2023-04-03T10:20:08;2.42;;;0.50;;
29906;SDS011;16776;50.958;10.994;2023-04-03T10:22:45;0.85;;;0.50;;
29906;SDS011;16776;50.958;10.994;2023-04-03T10:25:23;1.30;;;0.30;;
29906;SDS011;16776;50.958;10.994;2023-04-03T10:27:58;0.45;;;0.40;;
29906;SDS011;16776;50.958;10.994;2023-04-03T10:30:33;0.82;;;0.43;;
29906;SDS011;16776;50.958;10.994;2023-04-03T10:33:14;0.50;;;0.23;;
29906;SDS011;16776;50.958;10.994;2023-04-03T10:35:51;2.72;;;0.32;;
29906;SDS011;16776;50.958;10.994;2023-04-03T10:38:30;0.80;;;0.50;;
29906;SDS011;16776;50.958;10.994;2023-04-03T10:41:07;2.30;;;0.63;;
29906;SDS011;16776;50.958;10.994;2023-04-03T10:43:40;0.70;;;0.32;;
29906;SDS011;16776;50.958;10.994;2023-04-03T10:46:13;1.02;;;0.38;;
29906;SDS011;16776;50.958;10.994;2023-04-03T10:48:53;0.77;;;0.68;;
29906;SDS011;16776;50.958;10.994;2023-04-03T10:54:00;2.15;;;0.60;;
29906;SDS011;16776;50.958;10.994;2023-04-03T10:56:35;1.17;;;0.50;;
29906;SDS011;16776;50.958;10.994;2023-04-03T10:59:08;0.88;;;0.52;;
29906;SDS011;16776;50.958;10.994;2023-04-03T11:01:46;1.52;;;0.60;;
29906;SDS011;16776;50.958;10.994;2023-04-03T11:04:17;1.25;;;0.60;;
29906;SDS011;16776;50.958;10.994;2023-04-03T11:06:48;2.10;;;0.80;;
29906;SDS011;16776;50.958;10.994;2023-04-03T11:09:19;1.00;;;0.88;;
29906;SDS011;16776;50.958;10.994;2023-04-03T11:11:53;2.90;;;0.68;;
29906;SDS011;16776;50.958;10.994;2023-04-03T11:14:25;3.40;;;1.23;;
29906;SDS011;16776;50.958;10.994;2023-04-03T11:17:01;1.05;;;0.50;;
29906;SDS011;16776;50.958;10.994;2023-04-03T11:19:35;1.65;;;0.70;;
29906;SDS011;16776;50.958;10.994;2023-04-03T11:22:09;0.75;;;0.40;;
29906;SDS011;16776;50.958;10.994;2023-04-03T11:24:43;0.85;;;0.60;;
29906;SDS011;16776;50.958;10.994;2023-04-03T11:27:17;1.35;;;0.50;;
29906;SDS011;16776;50.958;10.994;2023-04-03T11:29:48;1.75;;;0.65;;
29906;SDS011;16776;50.958;10.994;2023-04-03T11:32:26;0.73;;;0.60;;
29906;SDS011;16776;50.958;10.994;2023-04-03T11:35:07;1.70;;;0.70;;
29906;SDS011;16776;50.958;10.994;2023-04-03T11:37:37;0.57;;;0.55;;
29906;SDS011;16776;50.958;10.994;2023-04-03T11:40:07;2.13;;;0.65;;
29906;SDS011;16776;50.958;10.994;2023-04-03T11:42:46;1.90;;;0.70;;
29906;SDS011;16776;50.958;10.994;2023-04-03T11:45:16;1.52;;;0.50;;
29906;SDS011;16776;50.958;10.994;2023-04-03T11:47:53;0.47;;;0.45;;
29906;SDS011;16776;50.958;10.994;2023-04-03T11:50:30;0.47;;;0.38;;
29906;SDS011;16776;50.958;10.994;2023-04-03T12:01:48;2.22;;;0.50;;
29906;SDS011;16776;50.958;10.994;2023-04-03T12:04:17;1.17;;;0.50;;
29906;SDS011;16776;50.958;10.994;2023-04-03T12:12:55;1.60;;;0.50;;
29906;SDS011;16776;50.958;10.994;2023-04-03T12:21:12;0.70;;;0.40;;
29906;SDS011;16776;50.958;10.994;2023-04-03T12:26:24;0.90;;;0.47;;
29906;SDS011;16776;50.958;10.994;2023-04-03T12:28:54;1.10;;;0.60;;
29906;SDS011;16776;50.958;10.994;2023-04-03T12:31:22;0.88;;;0.40;;
29906;SDS011;16776;50.958;10.994;2023-04-03T12:33:57;1.48;;;0.50;;
29906;SDS011;16776;50.958;10.994;2023-04-03T12:36:39;1.63;;;0.30;;
29906;SDS011;16776;50.958;10.994;2023-04-03T12:39:25;0.68;;;0.55;;
29906;SDS011;16776;50.958;10.994;2023-04-03T12:42:05;1.58;;;0.22;;
29906;SDS011;16776;50.958;10.994;2023-04-03T12:44:45;0.75;;;0.40;;
29906;SDS011;16776;50.958;10.994;2023-04-03T12:47:23;1.08;;;0.40;;
29906;SDS011;16776;50.958;10.994;2023-04-03T12:49:53;0.50;;;0.50;;
29906;SDS011;16776;50.958;10.994;2023-04-03T12:52:27;0.63;;;0.40;;
29906;SDS011;16776;50.958;10.994;2023-04-03T12:55:00;0.40;;;0.40;;
29906;SDS011;16776;50.958;10.994;2023-04-03T12:57:29;0.63;;;0.38;;
29906;SDS011;16776;50.958;10.994;2023-04-03T12:59:57;2.47;;;0.20;;
29906;SDS011;16776;50.958;10.994;2023-04-03T13:02:25;0.47;;;0.25;;
29906;SDS011;16776;50.958;10.994;2023-04-03T13:04:55;1.65;;;0.63;;
29906;SDS011;16776;50.958;10.994;2023-04-03T13:07:26;2.67;;;2.20;;
29906;SDS011;16776;50.958;10.994;2023-04-03T13:09:58;3.10;;;2.60;;
29906;SDS011;16776;50.958;10.994;2023-04-03T13:12:26;2.25;;;1.50;;
29906;SDS011;16776;50.958;10.994;2023-04-03T13:14:54;1.75;;;0.98;;
29906;SDS011;16776;50.958;10.994;2023-04-03T13:17:23;0.98;;;0.80;;
29906;SDS011;16776;50.958;10.994;2023-04-03T13:19:50;2.17;;;0.65;;
29906;SDS011;16776;50.958;10.994;2023-04-03T13:22:22;1.85;;;0.70;;
29906;SDS011;16776;50.958;10.994;2023-04-03T13:24:55;0.80;;;0.40;;
29906;SDS011;16776;50.958;10.994;2023-04-03T13:27:24;0.73;;;0.52;;
29906;SDS011;16776;50.958;10.994;2023-04-03T13:29:52;0.80;;;0.47;;
29906;SDS011;16776;50.958;10.994;2023-04-03T13:32:21;1.13;;;0.40;;
29906;SDS011;16776;50.958;10.994;2023-04-03T13:34:49;0.90;;;0.40;;
29906;SDS011;16776;50.958;10.994;2023-04-03T13:37:20;0.30;;;0.30;;
29906;SDS011;16776;50.958;10.994;2023-04-03T13:40:02;1.10;;;0.32;;
29906;SDS011;16776;50.958;10.994;2023-04-03T13:42:37;0.75;;;0.45;;
29906;SDS011;16776;50.958;10.994;2023-04-03T13:45:22;0.60;;;0.60;;
29906;SDS011;16776;50.958;10.994;2023-04-03T13:47:53;0.47;;;0.30;;
29906;SDS011;16776;50.958;10.994;2023-04-03T13:50:33;0.60;;;0.30;;
29906;SDS011;16776;50.958;10.994;2023-04-03T13:53:17;3.55;;;0.60;;
29906;SDS011;16776;50.958;10.994;2023-04-03T13:55:53;0.85;;;0.60;;
29906;SDS011;16776;50.958;10.994;2023-04-03T13:58:23;1.25;;;0.40;;
29906;SDS011;16776;50.958;10.994;2023-04-03T14:00:52;0.82;;;0.55;;
29906;SDS011;16776;50.958;10.994;2023-04-03T14:03:20;3.42;;;0.70;;
29906;SDS011;16776;50.958;10.994;2023-04-03T14:05:49;1.00;;;0.40;;
29906;SDS011;16776;50.958;10.994;2023-04-03T14:08:16;1.90;;;0.50;;
29906;SDS011;16776;50.958;10.994;2023-04-03T14:10:43;0.47;;;0.43;;
29906;SDS011;16776;50.958;10.994;2023-04-03T14:13:12;0.60;;;0.45;;
29906;SDS011;16776;50.958;10.994;2023-04-03T14:15:41;1.38;;;0.40;;
29906;SDS011;16776;50.958;10.994;2023-04-03T14:18:09;2.85;;;0.73;;
29906;SDS011;16776;50.958;10.994;2023-04-03T14:20:38;2.08;;;0.68;;
29906;SDS011;16776;50.958;10.994;2023-04-03T14:23:04;2.63;;;0.90;;
29906;SDS011;16776;50.958;10.994;2023-04-03T14:25:31;1.33;;;0.65;;
29906;SDS011;16776;50.958;10.994;2023-04-03T14:27:59;1.33;;;0.68;;
29906;SDS011;16776;50.958;10.994;2023-04-03T14:30:28;2.38;;;0.85;;
29906;SDS011;16776;50.958;10.994;2023-04-03T14:32:56;1.25;;;0.90;;
29906;SDS011;16776;50.958;10.994;2023-04-03T14:35:23;1.55;;;0.80;;
29906;SDS011;16776;50.958;10.994;2023-04-03T14:37:51;1.45;;;0.77;;
29906;SDS011;16776;50.958;10.994;2023-04-03T14:40:20;2.03;;;0.63;;
29906;SDS011;16776;50.958;10.994;2023-04-03T14:42:50;1.85;;;0.82;;
29906;SDS011;16776;50.958;10.994;2023-04-03T14:45:20;0.98;;;0.90;;
29906;SDS011;16776;50.958;10.994;2023-04-03T14:47:50;1.27;;;1.13;;
29906;SDS011;16776;50.958;10.994;2023-04-03T14:50:19;2.05;;;0.60;;
29906;SDS011;16776;50.958;10.994;2023-04-03T14:52:48;1.00;;;0.52;;
29906;SDS011;16776;50.958;10.994;2023-04-03T14:55:19;0.50;;;0.50;;
29906;SDS011;16776;50.958;10.994;2023-04-03T14:57:48;1.52;;;0.90;;
29906;SDS011;16776;50.958;10.994;2023-04-03T15:00:17;3.63;;;1.05;;
29906;SDS011;16776;50.958;10.994;2023-04-03T15:02:45;1.88;;;1.30;;
29906;SDS011;16776;50.958;10.994;2023-04-03T15:05:14;2.70;;;1.30;;
29906;SDS011;16776;50.958;10.994;2023-04-03T15:07:52;1.38;;;0.95;;
29906;SDS011;16776;50.958;10.994;2023-04-03T15:10:22;1.38;;;1.25;;
29906;SDS011;16776;50.958;10.994;2023-04-03T15:12:52;1.88;;;0.80;;
29906;SDS011;16776;50.958;10.994;2023-04-03T15:15:20;1.25;;;1.00;;
29906;SDS011;16776;50.958;10.994;2023-04-03T15:17:48;1.50;;;0.90;;